Aberdeen Regional Airport
KABR : now visible

Airfield :











YOU CAN JOIN US ON...

 
LOGIN :

Register | Disclaimer

   EN    FR    IT 

 









Legend :    VFR   Marginal VFR   IFR   Intensive IFR   Very Intensive IFR
Visi :
Ceiling :
>= 8 km
>= 3000ft
5 to 8 km
1000 to 3000 ft
1500m to 5 km
500 to 1000 ft
800 to 1500m
200 to 500 ft
< 800m
< 200 ft
Symbols :   Thunderstorms  Fog  Heavy snow  Heavy precipitations  Wind > 20 kt







- Airport Elevation : 1302 ft
- IATA code : ABR


KABR - Aberdeen Regional

CURRENT METAR :
  • 210353Z AUTO 04018KT 10SM CLR 14/10 A2968 RMK AO2 PK WND 03031/0302 SLP047 T01390100

EXPIRED METARs :
  • 210253Z AUTO 04019G29KT 10SM CLR 15/11 A2968 RMK AO2 PK WND 03031/0228 SLP050 T01500111 52033
  • 210153Z AUTO 04017G27KT 10SM CLR 17/11 A2965 RMK AO2 PK WND 03029/0058 SLP039 T01720111

TAF KABR
Valid from the 21 at 00:00 until the 22 at 00:00 UTC


210026Z 2100/2124 04015G22KT P6SM SCT250
FM211500 03015G22KT P6SM BKN015
FM212000 03017G27KT P6SM OVC025
FM212200 03019G27KT P6SM OVC035
KZMP FIR / North America



MET'MAP, your aeronautical weather chart ! - Copyright ORBIFLY December 2007 - Disclaimer

ORBIFLY MET'MAP TEAM :

Programming & Development : Alexandra Zaïnal
Concept & Development : Baudouin d'Aumeries
Co-Development & Prog : Marc-Olivier Méhu
Technical & hardware support : Manuel Goepfert

Contact : metmap@orbifly.com




SOURCES & CREDITS :

   NOAA       Earth
Advisory